sensor_id;sensor_type;location;lat;lon;timestamp;pressure;altitude;pressure_sealevel;temperature;humidity
25080;BME280;13071;48.868;9.996;2022-11-23T00:01:17;95208.38;;;3.56;95.66
25080;BME280;13071;48.868;9.996;2022-11-23T00:03:46;95219.72;;;3.53;96.38
25080;BME280;13071;48.868;9.996;2022-11-23T00:06:13;95212.34;;;3.50;96.50
25080;BME280;13071;48.868;9.996;2022-11-23T00:08:40;95220.19;;;3.55;96.87
25080;BME280;13071;48.868;9.996;2022-11-23T00:11:07;95224.28;;;3.53;97.19
25080;BME280;13071;48.868;9.996;2022-11-23T00:13:34;95218.28;;;3.56;97.10
25080;BME280;13071;48.868;9.996;2022-11-23T00:16:06;95215.78;;;3.51;97.29
25080;BME280;13071;48.868;9.996;2022-11-23T00:18:32;95216.13;;;3.49;96.81
25080;BME280;13071;48.868;9.996;2022-11-23T00:20:59;95216.91;;;3.50;96.56
25080;BME280;13071;48.868;9.996;2022-11-23T00:23:26;95221.78;;;3.47;96.90
25080;BME280;13071;48.868;9.996;2022-11-23T00:25:52;95216.28;;;3.44;96.83
25080;BME280;13071;48.868;9.996;2022-11-23T00:28:19;95219.56;;;3.41;97.00
25080;BME280;13071;48.868;9.996;2022-11-23T00:30:47;95217.25;;;3.31;97.00
25080;BME280;13071;48.868;9.996;2022-11-23T00:33:16;95219.47;;;3.20;97.17
25080;BME280;13071;48.868;9.996;2022-11-23T00:35:42;95226.56;;;3.08;97.43
25080;BME280;13071;48.868;9.996;2022-11-23T00:38:09;95227.97;;;3.05;97.45
25080;BME280;13071;48.868;9.996;2022-11-23T00:40:36;95228.94;;;3.00;97.43
25080;BME280;13071;48.868;9.996;2022-11-23T00:43:03;95232.69;;;2.99;97.53
25080;BME280;13071;48.868;9.996;2022-11-23T00:45:30;95231.28;;;2.85;97.60
25080;BME280;13071;48.868;9.996;2022-11-23T00:47:56;95232.38;;;2.75;98.33
25080;BME280;13071;48.868;9.996;2022-11-23T00:50:24;95236.94;;;2.75;97.99
25080;BME280;13071;48.868;9.996;2022-11-23T00:52:51;95234.88;;;2.72;97.84
25080;BME280;13071;48.868;9.996;2022-11-23T00:55:17;95230.03;;;2.65;97.35
25080;BME280;13071;48.868;9.996;2022-11-23T00:57:44;95230.03;;;2.65;96.93
25080;BME280;13071;48.868;9.996;2022-11-23T01:00:11;95244.31;;;2.60;97.65
25080;BME280;13071;48.868;9.996;2022-11-23T01:02:38;95240.69;;;2.65;97.26
25080;BME280;13071;48.868;9.996;2022-11-23T01:05:05;95233.16;;;2.58;96.77
25080;BME280;13071;48.868;9.996;2022-11-23T01:07:33;95238.19;;;2.60;97.32
25080;BME280;13071;48.868;9.996;2022-11-23T01:10:00;95235.38;;;2.65;97.14
25080;BME280;13071;48.868;9.996;2022-11-23T01:12:27;95237.25;;;2.65;97.61
25080;BME280;13071;48.868;9.996;2022-11-23T01:14:54;95236.94;;;2.66;97.49
25080;BME280;13071;48.868;9.996;2022-11-23T01:17:21;95235.81;;;2.50;98.16
25080;BME280;13071;48.868;9.996;2022-11-23T01:19:47;95239.22;;;2.25;98.91
25080;BME280;13071;48.868;9.996;2022-11-23T01:22:14;95237.69;;;2.41;98.12
25080;BME280;13071;48.868;9.996;2022-11-23T01:24:42;95236.13;;;2.48;97.40
25080;BME280;13071;48.868;9.996;2022-11-23T01:27:08;95248.22;;;2.46;97.65
25080;BME280;13071;48.868;9.996;2022-11-23T01:29:35;95250.88;;;2.46;97.31
25080;BME280;13071;48.868;9.996;2022-11-23T01:32:02;95245.50;;;2.37;97.48
25080;BME280;13071;48.868;9.996;2022-11-23T01:34:28;95246.13;;;2.34;97.45
25080;BME280;13071;48.868;9.996;2022-11-23T01:36:55;95248.19;;;2.37;97.68
25080;BME280;13071;48.868;9.996;2022-11-23T01:39:21;95248.03;;;2.34;97.79
25080;BME280;13071;48.868;9.996;2022-11-23T01:41:49;95253.06;;;2.35;98.04
25080;BME280;13071;48.868;9.996;2022-11-23T01:44:27;95251.19;;;2.36;98.04
25080;BME280;13071;48.868;9.996;2022-11-23T01:46:55;95252.91;;;2.40;98.59
25080;BME280;13071;48.868;9.996;2022-11-23T01:49:23;95247.88;;;2.47;98.48
25080;BME280;13071;48.868;9.996;2022-11-23T01:51:53;95257.63;;;2.52;98.71
25080;BME280;13071;48.868;9.996;2022-11-23T01:54:23;95272.56;;;2.53;98.90
25080;BME280;13071;48.868;9.996;2022-11-23T01:56:56;95261.88;;;2.53;99.05
25080;BME280;13071;48.868;9.996;2022-11-23T01:59:26;95272.56;;;2.53;99.33
25080;BME280;13071;48.868;9.996;2022-11-23T02:01:54;95265.34;;;2.62;99.17
25080;BME280;13071;48.868;9.996;2022-11-23T02:04:23;95270.38;;;2.64;98.40
25080;BME280;13071;48.868;9.996;2022-11-23T02:06:51;95271.97;;;2.65;98.24
25080;BME280;13071;48.868;9.996;2022-11-23T02:09:19;95268.19;;;2.66;97.79
25080;BME280;13071;48.868;9.996;2022-11-23T02:11:47;95269.59;;;2.72;97.65
25080;BME280;13071;48.868;9.996;2022-11-23T02:14:15;95268.03;;;2.62;96.97
25080;BME280;13071;48.868;9.996;2022-11-23T02:16:42;95271.81;;;2.61;97.68
25080;BME280;13071;48.868;9.996;2022-11-23T02:19:15;95263.31;;;2.59;98.08
25080;BME280;13071;48.868;9.996;2022-11-23T02:21:44;95264.75;;;2.65;97.78
25080;BME280;13071;48.868;9.996;2022-11-23T02:24:14;95266.13;;;2.63;97.84
25080;BME280;13071;48.868;9.996;2022-11-23T02:26:48;95268.19;;;2.66;97.08
25080;BME280;13071;48.868;9.996;2022-11-23T02:29:19;95273.69;;;2.60;97.76
25080;BME280;13071;48.868;9.996;2022-11-23T02:31:47;95266.28;;;2.57;97.35
25080;BME280;13071;48.868;9.996;2022-11-23T02:34:15;95257.63;;;2.52;97.79
25080;BME280;13071;48.868;9.996;2022-11-23T02:36:43;95270.03;;;2.48;98.21
25080;BME280;13071;48.868;9.996;2022-11-23T02:39:12;95273.66;;;2.52;98.73
25080;BME280;13071;48.868;9.996;2022-11-23T02:41:41;95265.97;;;2.50;98.42
25080;BME280;13071;48.868;9.996;2022-11-23T02:44:20;95265.19;;;2.50;98.67
25080;BME280;13071;48.868;9.996;2022-11-23T02:46:49;95266.28;;;2.49;98.94
25080;BME280;13071;48.868;9.996;2022-11-23T02:49:16;95268.16;;;2.57;99.08
25080;BME280;13071;48.868;9.996;2022-11-23T02:51:43;95267.56;;;2.60;98.91
25080;BME280;13071;48.868;9.996;2022-11-23T02:54:10;95265.19;;;2.58;99.12
25080;BME280;13071;48.868;9.996;2022-11-23T02:56:36;95260.97;;;2.66;99.37
25080;BME280;13071;48.868;9.996;2022-11-23T02:59:03;95255.50;;;2.71;99.20
25080;BME280;13071;48.868;9.996;2022-11-23T03:01:31;95259.09;;;2.75;99.13
25080;BME280;13071;48.868;9.996;2022-11-23T03:03:58;95261.13;;;2.78;99.52
25080;BME280;13071;48.868;9.996;2022-11-23T03:06:24;95272.91;;;2.60;100.00
25080;BME280;13071;48.868;9.996;2022-11-23T03:08:51;95271.81;;;2.13;100.00
25080;BME280;13071;48.868;9.996;2022-11-23T03:11:18;95276.00;;;2.45;99.09
25080;BME280;13071;48.868;9.996;2022-11-23T03:13:44;95268.00;;;2.45;98.83
25080;BME280;13071;48.868;9.996;2022-11-23T03:16:11;95274.44;;;2.44;99.56
25080;BME280;13071;48.868;9.996;2022-11-23T03:18:40;95262.97;;;2.52;99.30
25080;BME280;13071;48.868;9.996;2022-11-23T03:21:06;95269.44;;;2.68;99.40
25080;BME280;13071;48.868;9.996;2022-11-23T03:23:34;95266.03;;;2.76;98.88
25080;BME280;13071;48.868;9.996;2022-11-23T03:26:01;95273.25;;;2.76;98.69
25080;BME280;13071;48.868;9.996;2022-11-23T03:28:28;95265.84;;;2.81;98.81
25080;BME280;13071;48.868;9.996;2022-11-23T03:30:55;95260.03;;;2.71;98.51
25080;BME280;13071;48.868;9.996;2022-11-23T03:33:22;95250.28;;;2.66;98.84
25080;BME280;13071;48.868;9.996;2022-11-23T03:35:50;95257.66;;;2.60;99.68
25080;BME280;13071;48.868;9.996;2022-11-23T03:38:17;95250.59;;;2.65;99.25
25080;BME280;13071;48.868;9.996;2022-11-23T03:40:43;95246.50;;;2.67;98.42
25080;BME280;13071;48.868;9.996;2022-11-23T03:43:11;95250.44;;;2.70;98.48
25080;BME280;13071;48.868;9.996;2022-11-23T03:45:37;95252.81;;;2.71;98.72
25080;BME280;13071;48.868;9.996;2022-11-23T03:48:04;95250.28;;;2.75;98.57
25080;BME280;13071;48.868;9.996;2022-11-23T03:50:31;95259.25;;;2.70;98.78
25080;BME280;13071;48.868;9.996;2022-11-23T03:52:59;95248.72;;;2.74;99.43
25080;BME280;13071;48.868;9.996;2022-11-23T03:55:26;95246.53;;;2.76;99.52
25080;BME280;13071;48.868;9.996;2022-11-23T03:57:53;95248.09;;;2.77;99.65
25080;BME280;13071;48.868;9.996;2022-11-23T04:00:24;95246.69;;;2.88;99.29
25080;BME280;13071;48.868;9.996;2022-11-23T04:02:50;95254.53;;;2.93;100.00
25080;BME280;13071;48.868;9.996;2022-11-23T04:05:17;95246.06;;;2.99;99.06
25080;BME280;13071;48.868;9.996;2022-11-23T04:07:45;95253.28;;;2.99;98.44
25080;BME280;13071;48.868;9.996;2022-11-23T04:10:14;95258.63;;;2.73;98.62
25080;BME280;13071;48.868;9.996;2022-11-23T04:12:41;95256.88;;;2.77;98.36
25080;BME280;13071;48.868;9.996;2022-11-23T04:15:08;95252.19;;;2.74;98.75
25080;BME280;13071;48.868;9.996;2022-11-23T04:17:35;95256.56;;;2.79;98.79
25080;BME280;13071;48.868;9.996;2022-11-23T04:20:02;95248.56;;;2.70;98.24
25080;BME280;13071;48.868;9.996;2022-11-23T04:22:29;95246.34;;;2.64;99.25
25080;BME280;13071;48.868;9.996;2022-11-23T04:24:56;95254.34;;;2.55;99.92
25080;BME280;13071;48.868;9.996;2022-11-23T04:27:24;95253.13;;;2.61;99.39
25080;BME280;13071;48.868;9.996;2022-11-23T04:29:51;95257.66;;;2.60;100.00
25080;BME280;13071;48.868;9.996;2022-11-23T04:32:17;95246.34;;;2.64;100.00
25080;BME280;13071;48.868;9.996;2022-11-23T04:34:44;95251.84;;;2.58;100.00
25080;BME280;13071;48.868;9.996;2022-11-23T04:37:10;95245.56;;;2.63;100.00
25080;BME280;13071;48.868;9.996;2022-11-23T04:39:37;95237.09;;;2.70;99.69
25080;BME280;13071;48.868;9.996;2022-11-23T04:42:04;95246.03;;;2.74;100.00
25080;BME280;13071;48.868;9.996;2022-11-23T04:44:32;95246.22;;;2.86;99.59
25080;BME280;13071;48.868;9.996;2022-11-23T04:46:58;95245.59;;;2.89;99.78
25080;BME280;13071;48.868;9.996;2022-11-23T04:49:25;95244.31;;;2.86;99.26
25080;BME280;13071;48.868;9.996;2022-11-23T04:51:52;95243.72;;;2.81;99.45
25080;BME280;13071;48.868;9.996;2022-11-23T04:54:18;95246.53;;;2.84;99.30
25080;BME280;13071;48.868;9.996;2022-11-23T04:56:45;95241.97;;;2.85;99.78
25080;BME280;13071;48.868;9.996;2022-11-23T04:59:12;95237.56;;;2.89;99.15
25080;BME280;13071;48.868;9.996;2022-11-23T05:01:40;95247.94;;;2.90;99.72
25080;BME280;13071;48.868;9.996;2022-11-23T05:04:06;95247.47;;;2.97;99.46
25080;BME280;13071;48.868;9.996;2022-11-23T05:06:33;95239.78;;;2.95;99.30
25080;BME280;13071;48.868;9.996;2022-11-23T05:08:59;95236.94;;;2.92;99.61
25080;BME280;13071;48.868;9.996;2022-11-23T05:11:26;95234.75;;;2.85;99.76
25080;BME280;13071;48.868;9.996;2022-11-23T05:13:53;95230.34;;;2.89;100.00
25080;BME280;13071;48.868;9.996;2022-11-23T05:16:19;95235.81;;;3.01;99.97
25080;BME280;13071;48.868;9.996;2022-11-23T05:18:47;95228.63;;;3.11;99.51
25080;BME280;13071;48.868;9.996;2022-11-23T05:21:14;95227.19;;;3.04;99.12
25080;BME280;13071;48.868;9.996;2022-11-23T05:23:40;95224.38;;;3.10;99.66
25080;BME280;13071;48.868;9.996;2022-11-23T05:26:07;95224.97;;;3.07;100.00
25080;BME280;13071;48.868;9.996;2022-11-23T05:28:34;95228.44;;;3.07;100.00
25080;BME280;13071;48.868;9.996;2022-11-23T05:31:02;95221.34;;;3.11;100.00
25080;BME280;13071;48.868;9.996;2022-11-23T05:33:28;95222.31;;;3.15;100.00
25080;BME280;13071;48.868;9.996;2022-11-23T05:35:56;95217.56;;;3.21;99.29
25080;BME280;13071;48.868;9.996;2022-11-23T05:38:23;95221.53;;;3.15;99.76
25080;BME280;13071;48.868;9.996;2022-11-23T05:40:49;95226.69;;;3.11;99.39
25080;BME280;13071;48.868;9.996;2022-11-23T05:43:16;95218.53;;;3.25;99.60
25080;BME280;13071;48.868;9.996;2022-11-23T05:45:42;95222.78;;;3.17;98.51
25080;BME280;13071;48.868;9.996;2022-11-23T05:48:09;95220.75;;;3.14;98.49
25080;BME280;13071;48.868;9.996;2022-11-23T05:50:36;95219.66;;;3.15;99.33
25080;BME280;13071;48.868;9.996;2022-11-23T05:53:04;95226.09;;;3.14;99.58
25080;BME280;13071;48.868;9.996;2022-11-23T05:55:30;95225.13;;;3.19;99.58
25080;BME280;13071;48.868;9.996;2022-11-23T05:57:57;95230.47;;;3.27;99.71
25080;BME280;13071;48.868;9.996;2022-11-23T06:00:24;95226.22;;;3.26;99.53
25080;BME280;13071;48.868;9.996;2022-11-23T06:02:51;95224.66;;;3.25;99.50
25080;BME280;13071;48.868;9.996;2022-11-23T06:05:17;95229.66;;;3.27;99.93
25080;BME280;13071;48.868;9.996;2022-11-23T06:07:44;95222.00;;;3.25;100.00
25080;BME280;13071;48.868;9.996;2022-11-23T06:10:12;95219.16;;;3.30;99.71
25080;BME280;13071;48.868;9.996;2022-11-23T06:12:39;95223.69;;;3.38;99.65
25080;BME280;13071;48.868;9.996;2022-11-23T06:15:06;95225.88;;;3.36;99.82
25080;BME280;13071;48.868;9.996;2022-11-23T06:17:34;95229.84;;;3.30;99.83
25080;BME280;13071;48.868;9.996;2022-11-23T06:20:01;95228.28;;;3.29;100.00
25080;BME280;13071;48.868;9.996;2022-11-23T06:22:27;95228.72;;;3.40;99.76
25080;BME280;13071;48.868;9.996;2022-11-23T06:24:54;95231.84;;;3.42;99.29
25080;BME280;13071;48.868;9.996;2022-11-23T06:27:22;95229.19;;;3.42;99.10
25080;BME280;13071;48.868;9.996;2022-11-23T06:29:49;95233.25;;;3.48;99.25
25080;BME280;13071;48.868;9.996;2022-11-23T06:32:15;95237.03;;;3.47;98.97
25080;BME280;13071;48.868;9.996;2022-11-23T06:34:42;95230.34;;;3.15;99.49
25080;BME280;13071;48.868;9.996;2022-11-23T06:37:09;95233.63;;;3.29;100.00
25080;BME280;13071;48.868;9.996;2022-11-23T06:39:35;95233.91;;;3.36;99.60
25080;BME280;13071;48.868;9.996;2022-11-23T06:42:02;95235.66;;;3.32;99.71
25080;BME280;13071;48.868;9.996;2022-11-23T06:44:30;95230.13;;;3.37;99.93
25080;BME280;13071;48.868;9.996;2022-11-23T06:46:57;95237.06;;;3.38;100.00
25080;BME280;13071;48.868;9.996;2022-11-23T06:49:23;95233.56;;;3.46;99.43
25080;BME280;13071;48.868;9.996;2022-11-23T06:51:50;95240.97;;;3.41;98.77
25080;BME280;13071;48.868;9.996;2022-11-23T06:54:17;95243.19;;;3.39;99.03
25080;BME280;13071;48.868;9.996;2022-11-23T06:56:43;95251.06;;;3.44;99.00
25080;BME280;13071;48.868;9.996;2022-11-23T06:59:10;95251.69;;;3.50;99.31
25080;BME280;13071;48.868;9.996;2022-11-23T07:01:39;95247.13;;;3.50;98.92
25080;BME280;13071;48.868;9.996;2022-11-23T07:04:05;95256.53;;;3.56;99.27
25080;BME280;13071;48.868;9.996;2022-11-23T07:06:32;95266.16;;;3.48;99.47
25080;BME280;13071;48.868;9.996;2022-11-23T07:08:58;95258.75;;;3.54;99.90
25080;BME280;13071;48.868;9.996;2022-11-23T07:11:27;95261.41;;;3.54;99.30
25080;BME280;13071;48.868;9.996;2022-11-23T07:13:53;95263.94;;;3.59;99.37
25080;BME280;13071;48.868;9.996;2022-11-23T07:16:20;95265.47;;;3.69;99.20
25080;BME280;13071;48.868;9.996;2022-11-23T07:18:48;95275.09;;;3.61;98.63
25080;BME280;13071;48.868;9.996;2022-11-23T07:21:14;95268.94;;;3.61;99.09
25080;BME280;13071;48.868;9.996;2022-11-23T07:23:42;95267.84;;;3.62;99.23
25080;BME280;13071;48.868;9.996;2022-11-23T07:26:08;95270.00;;;3.77;98.70
25080;BME280;13071;48.868;9.996;2022-11-23T07:28:35;95276.47;;;3.84;98.03
25080;BME280;13071;48.868;9.996;2022-11-23T07:31:02;95278.31;;;3.92;97.96
25080;BME280;13071;48.868;9.996;2022-11-23T07:33:28;95274.84;;;3.92;97.03
25080;BME280;13071;48.868;9.996;2022-11-23T07:35:59;95278.00;;;3.94;96.61
25080;BME280;13071;48.868;9.996;2022-11-23T07:38:26;95279.84;;;4.02;96.52
25080;BME280;13071;48.868;9.996;2022-11-23T07:40:52;95275.03;;;3.87;96.17
25080;BME280;13071;48.868;9.996;2022-11-23T07:43:19;95276.34;;;3.64;97.29
25080;BME280;13071;48.868;9.996;2022-11-23T07:45:45;95271.00;;;3.64;97.19
25080;BME280;13071;48.868;9.996;2022-11-23T07:48:12;95282.00;;;3.62;97.46
25080;BME280;13071;48.868;9.996;2022-11-23T07:50:39;95277.56;;;3.83;96.63
25080;BME280;13071;48.868;9.996;2022-11-23T07:53:06;95269.44;;;3.45;97.87
25080;BME280;13071;48.868;9.996;2022-11-23T07:55:33;95272.59;;;3.47;99.14
25080;BME280;13071;48.868;9.996;2022-11-23T07:58:01;95274.91;;;3.66;97.79
25080;BME280;13071;48.868;9.996;2022-11-23T08:00:28;95281.06;;;3.67;97.09
25080;BME280;13071;48.868;9.996;2022-11-23T08:02:56;95276.84;;;3.48;97.31
25080;BME280;13071;48.868;9.996;2022-11-23T08:05:22;95277.13;;;3.56;97.79
25080;BME280;13071;48.868;9.996;2022-11-23T08:07:50;95283.72;;;3.67;97.52
25080;BME280;13071;48.868;9.996;2022-11-23T08:10:18;95279.63;;;3.78;96.13
25080;BME280;13071;48.868;9.996;2022-11-23T08:12:45;95276.47;;;3.84;95.98
25080;BME280;13071;48.868;9.996;2022-11-23T08:15:12;95274.09;;;3.83;95.65
25080;BME280;13071;48.868;9.996;2022-11-23T08:17:38;95275.81;;;3.87;96.16
25080;BME280;13071;48.868;9.996;2022-11-23T08:20:05;95277.66;;;3.96;95.96
25080;BME280;13071;48.868;9.996;2022-11-23T08:22:32;95274.72;;;3.80;96.47
25080;BME280;13071;48.868;9.996;2022-11-23T08:24:59;95275.66;;;3.84;98.48
25080;BME280;13071;48.868;9.996;2022-11-23T08:27:27;95281.09;;;4.05;97.31
25080;BME280;13071;48.868;9.996;2022-11-23T08:29:53;95283.94;;;4.08;97.39
25080;BME280;13071;48.868;9.996;2022-11-23T08:32:20;95287.22;;;4.14;97.72
25080;BME280;13071;48.868;9.996;2022-11-23T08:34:46;95282.75;;;4.26;97.89
25080;BME280;13071;48.868;9.996;2022-11-23T08:37:13;95279.59;;;4.33;98.08
25080;BME280;13071;48.868;9.996;2022-11-23T08:39:40;95286.72;;;4.20;99.42
25080;BME280;13071;48.868;9.996;2022-11-23T08:42:06;95289.47;;;4.41;98.24
25080;BME280;13071;48.868;9.996;2022-11-23T08:44:34;95281.88;;;4.05;98.76
25080;BME280;13071;48.868;9.996;2022-11-23T08:47:01;95285.47;;;4.18;98.88
25080;BME280;13071;48.868;9.996;2022-11-23T08:49:27;95283.84;;;4.34;98.33
25080;BME280;13071;48.868;9.996;2022-11-23T08:51:54;95284.63;;;4.26;98.51
25080;BME280;13071;48.868;9.996;2022-11-23T08:54:21;95287.09;;;4.40;99.19
25080;BME280;13071;48.868;9.996;2022-11-23T08:56:48;95284.38;;;4.48;99.96
25080;BME280;13071;48.868;9.996;2022-11-23T08:59:15;95287.47;;;4.59;98.63
25080;BME280;13071;48.868;9.996;2022-11-23T09:01:44;95283.19;;;4.66;98.41
25080;BME280;13071;48.868;9.996;2022-11-23T09:04:11;95280.44;;;4.75;98.95
25080;BME280;13071;48.868;9.996;2022-11-23T09:06:38;95285.09;;;4.87;99.45
25080;BME280;13071;48.868;9.996;2022-11-23T09:09:04;95287.41;;;4.97;97.93
25080;BME280;13071;48.868;9.996;2022-11-23T09:11:31;95287.34;;;5.26;98.03
25080;BME280;13071;48.868;9.996;2022-11-23T09:13:58;95287.97;;;5.44;96.20
25080;BME280;13071;48.868;9.996;2022-11-23T09:16:24;95286.97;;;5.48;95.65
25080;BME280;13071;48.868;9.996;2022-11-23T09:18:55;95282.69;;;5.35;95.41
25080;BME280;13071;48.868;9.996;2022-11-23T09:21:22;95282.00;;;5.38;95.63
25080;BME280;13071;48.868;9.996;2022-11-23T09:23:54;95284.19;;;5.24;95.59
25080;BME280;13071;48.868;9.996;2022-11-23T09:26:20;95286.66;;;5.50;96.43
25080;BME280;13071;48.868;9.996;2022-11-23T09:28:47;95281.34;;;5.62;95.29
25080;BME280;13071;48.868;9.996;2022-11-23T09:31:13;95276.31;;;5.73;94.25
25080;BME280;13071;48.868;9.996;2022-11-23T09:33:40;95283.06;;;5.79;93.98
25080;BME280;13071;48.868;9.996;2022-11-23T09:36:08;95280.84;;;5.81;93.68
25080;BME280;13071;48.868;9.996;2022-11-23T09:38:35;95278.47;;;5.79;93.85
25080;BME280;13071;48.868;9.996;2022-11-23T09:41:14;95284.94;;;5.99;93.27
25080;BME280;13071;48.868;9.996;2022-11-23T09:43:55;95280.47;;;6.03;92.82
25080;BME280;13071;48.868;9.996;2022-11-23T09:46:32;95282.97;;;6.20;92.49
25080;BME280;13071;48.868;9.996;2022-11-23T09:49:11;95280.84;;;6.26;92.41
25080;BME280;13071;48.868;9.996;2022-11-23T09:51:41;95280.63;;;6.43;90.79
25080;BME280;13071;48.868;9.996;2022-11-23T09:54:19;95274.34;;;6.39;90.29
25080;BME280;13071;48.868;9.996;2022-11-23T09:56:48;95283.09;;;6.48;90.72
25080;BME280;13071;48.868;9.996;2022-11-23T09:59:25;95277.59;;;6.44;89.08
25080;BME280;13071;48.868;9.996;2022-11-23T10:01:56;95269.53;;;6.44;89.11
25080;BME280;13071;48.868;9.996;2022-11-23T10:04:23;95267.75;;;6.61;89.09
25080;BME280;13071;48.868;9.996;2022-11-23T10:06:55;95274.22;;;6.72;88.48
25080;BME280;13071;48.868;9.996;2022-11-23T10:09:31;95275.56;;;6.78;88.07
25080;BME280;13071;48.868;9.996;2022-11-23T10:12:16;95278.50;;;6.73;86.88
25080;BME280;13071;48.868;9.996;2022-11-23T10:15:02;95275.38;;;6.71;87.81
25080;BME280;13071;48.868;9.996;2022-11-23T10:17:48;95279.50;;;6.80;87.31
25080;BME280;13071;48.868;9.996;2022-11-23T10:20:38;95270.75;;;6.71;86.38
25080;BME280;13071;48.868;9.996;2022-11-23T10:23:13;95277.50;;;6.65;85.95
25080;BME280;13071;48.868;9.996;2022-11-23T10:25:46;95259.34;;;6.74;84.03
25080;BME280;13071;48.868;9.996;2022-11-23T10:28:17;95265.28;;;6.80;83.79
25080;BME280;13071;48.868;9.996;2022-11-23T10:30:50;95264.63;;;6.71;83.08
25080;BME280;13071;48.868;9.996;2022-11-23T10:33:25;95258.56;;;6.74;84.32
25080;BME280;13071;48.868;9.996;2022-11-23T10:35:54;95259.06;;;6.91;83.98
25080;BME280;13071;48.868;9.996;2022-11-23T10:38:25;95261.53;;;6.97;83.44
25080;BME280;13071;48.868;9.996;2022-11-23T10:40:59;95258.59;;;7.14;81.55
25080;BME280;13071;48.868;9.996;2022-11-23T10:43:31;95254.91;;;7.06;80.76
25080;BME280;13071;48.868;9.996;2022-11-23T10:46:22;95250.22;;;7.03;80.80
25080;BME280;13071;48.868;9.996;2022-11-23T10:48:49;95257.94;;;7.05;80.27
25080;BME280;13071;48.868;9.996;2022-11-23T10:51:25;95252.50;;;7.17;81.31
25080;BME280;13071;48.868;9.996;2022-11-23T10:53:56;95255.66;;;7.19;79.83
25080;BME280;13071;48.868;9.996;2022-11-23T10:56:24;95247.00;;;7.25;78.98
25080;BME280;13071;48.868;9.996;2022-11-23T10:58:50;95246.81;;;7.46;79.19
25080;BME280;13071;48.868;9.996;2022-11-23T11:01:19;95239.72;;;7.54;77.77
25080;BME280;13071;48.868;9.996;2022-11-23T11:03:47;95241.59;;;7.25;78.48
25080;BME280;13071;48.868;9.996;2022-11-23T11:06:21;95242.59;;;7.33;79.36
25080;BME280;13071;48.868;9.996;2022-11-23T11:08:50;95235.84;;;7.39;79.16
25080;BME280;13071;48.868;9.996;2022-11-23T11:11:24;95233.41;;;7.34;80.05
25080;BME280;13071;48.868;9.996;2022-11-23T11:14:00;95241.81;;;7.32;78.75
25080;BME280;13071;48.868;9.996;2022-11-23T11:16:29;95229.28;;;7.52;77.49
25080;BME280;13071;48.868;9.996;2022-11-23T11:18:56;95226.47;;;7.33;80.21
25080;BME280;13071;48.868;9.996;2022-11-23T11:21:29;95230.19;;;7.28;79.10
25080;BME280;13071;48.868;9.996;2022-11-23T11:24:00;95224.84;;;7.44;77.96
25080;BME280;13071;48.868;9.996;2022-11-23T11:26:29;95228.66;;;7.43;76.45
25080;BME280;13071;48.868;9.996;2022-11-23T11:28:59;95222.16;;;7.44;76.61
25080;BME280;13071;48.868;9.996;2022-11-23T11:31:36;95227.38;;;7.53;77.31
25080;BME280;13071;48.868;9.996;2022-11-23T11:34:15;95216.69;;;7.56;75.34
25080;BME280;13071;48.868;9.996;2022-11-23T11:36:49;95214.22;;;7.63;74.07
25080;BME280;13071;48.868;9.996;2022-11-23T11:39:21;95218.97;;;7.70;72.96
25080;BME280;13071;48.868;9.996;2022-11-23T11:41:51;95213.72;;;7.73;73.95
25080;BME280;13071;48.868;9.996;2022-11-23T11:44:21;95215.78;;;7.64;73.05
25080;BME280;13071;48.868;9.996;2022-11-23T11:46:55;95208.84;;;7.79;72.91
25080;BME280;13071;48.868;9.996;2022-11-23T11:49:25;95213.50;;;7.66;71.65
25080;BME280;13071;48.868;9.996;2022-11-23T11:52:01;95211.34;;;7.72;73.35
25080;BME280;13071;48.868;9.996;2022-11-23T11:54:33;95203.97;;;7.69;72.21
25080;BME280;13071;48.868;9.996;2022-11-23T11:57:04;95214.88;;;8.04;71.99
25080;BME280;13071;48.868;9.996;2022-11-23T11:59:35;95205.28;;;7.91;72.54
25080;BME280;13071;48.868;9.996;2022-11-23T12:02:17;95200.78;;;7.79;71.14
25080;BME280;13071;48.868;9.996;2022-11-23T12:04:49;95202.69;;;7.94;73.13
25080;BME280;13071;48.868;9.996;2022-11-23T12:07:25;95197.47;;;7.86;70.64
25080;BME280;13071;48.868;9.996;2022-11-23T12:09:56;95193.53;;;7.67;69.78
25080;BME280;13071;48.868;9.996;2022-11-23T12:12:33;95203.53;;;7.82;69.59
25080;BME280;13071;48.868;9.996;2022-11-23T12:15:01;95190.06;;;7.67;70.54
25080;BME280;13071;48.868;9.996;2022-11-23T12:17:42;95198.66;;;7.72;70.42
25080;BME280;13071;48.868;9.996;2022-11-23T12:20:20;95200.91;;;7.70;72.27
25080;BME280;13071;48.868;9.996;2022-11-23T12:22:59;95193.81;;;7.78;71.87
25080;BME280;13071;48.868;9.996;2022-11-23T12:25:30;95191.13;;;7.78;72.12
25080;BME280;13071;48.868;9.996;2022-11-23T12:28:16;95187.97;;;7.76;72.56
25080;BME280;13071;48.868;9.996;2022-11-23T12:30:56;95179.47;;;7.58;70.72
25080;BME280;13071;48.868;9.996;2022-11-23T12:33:40;95183.03;;;7.62;72.84
25080;BME280;13071;48.868;9.996;2022-11-23T12:36:29;95182.31;;;7.65;72.73
25080;BME280;13071;48.868;9.996;2022-11-23T12:39:05;95176.94;;;7.65;73.18
25080;BME280;13071;48.868;9.996;2022-11-23T12:41:38;95181.19;;;7.66;72.05
25080;BME280;13071;48.868;9.996;2022-11-23T12:47:14;95177.75;;;7.97;71.41
25080;BME280;13071;48.868;9.996;2022-11-23T12:49:49;95172.00;;;8.14;70.87
25080;BME280;13071;48.868;9.996;2022-11-23T12:52:29;95163.84;;;7.95;69.15
25080;BME280;13071;48.868;9.996;2022-11-23T12:55:03;95169.84;;;7.73;70.32
25080;BME280;13071;48.868;9.996;2022-11-23T12:57:37;95165.81;;;7.67;71.45
25080;BME280;13071;48.868;9.996;2022-11-23T13:00:13;95172.59;;;7.61;72.02
25080;BME280;13071;48.868;9.996;2022-11-23T13:03:22;95169.31;;;7.83;69.14
25080;BME280;13071;48.868;9.996;2022-11-23T13:06:16;95166.09;;;7.62;70.91
25080;BME280;13071;48.868;9.996;2022-11-23T13:09:06;95162.00;;;7.68;71.71
25080;BME280;13071;48.868;9.996;2022-11-23T13:11:48;95150.19;;;7.57;71.57
25080;BME280;13071;48.868;9.996;2022-11-23T13:14:25;95146.88;;;7.48;71.30
25080;BME280;13071;48.868;9.996;2022-11-23T13:17:07;95151.81;;;7.46;71.78
25080;BME280;13071;48.868;9.996;2022-11-23T13:19:52;95159.03;;;7.57;70.71
25080;BME280;13071;48.868;9.996;2022-11-23T13:22:29;95159.38;;;7.56;72.36
25080;BME280;13071;48.868;9.996;2022-11-23T13:25:12;95159.66;;;7.66;72.32